YUL weather

Public forecast

Using degrees Celsius for public forecast. Weather courtesy of forecast.io.

Current aviation weather report (METAR) for Montreal / Pierre Elliott Trudeau International Airport

Retrieved 2020/08/13 08:00 UTC (46 minutes ago):

CYUL 130800Z 24004KT 15SM SKC 20/16 A3008 RMK SLP189 DENSITY ALT 600FT

Aviation forecast (TAF) for Montreal / Pierre Elliott Trudeau International Airport

Retrieved 2020/08/13 09:51 UTC (0 seconds ago):

TAF CYUL 130842Z 1309/1406 22005KT P6SM FEW240 BECMG 1309/1311 VRB03KT FM131700 24007KT P6SM SCT060 FM132000 21007KT P6SM BKN050 BECMG 1322/1324 15005KT BECMG 1401/1403 04007KT RMK NXT FCST BY 131200Z